createdAt,value
2023-04-23T00:02:22.921Z,8.40
2023-04-23T00:04:52.923Z,8.40
2023-04-23T00:07:23.463Z,8.30
2023-04-23T00:09:57.089Z,8.30
2023-04-23T00:12:24.774Z,8.20
2023-04-23T00:14:52.257Z,8.20
2023-04-23T00:17:20.030Z,8.20
2023-04-23T00:19:47.622Z,8.20
2023-04-23T00:22:17.011Z,8.20
2023-04-23T00:24:44.411Z,8.10
2023-04-23T00:27:11.479Z,8.20
2023-04-23T00:29:38.653Z,8.20
2023-04-23T00:32:05.818Z,8.10
2023-04-23T00:34:33.168Z,8.10
2023-04-23T00:37:00.297Z,8.10
2023-04-23T00:39:27.292Z,8.10
2023-04-23T00:41:54.386Z,8.10
2023-04-23T00:44:22.588Z,8.00
2023-04-23T00:46:50.229Z,8.00
2023-04-23T00:49:19.022Z,8.10
2023-04-23T00:51:46.236Z,8.10
2023-04-23T00:54:14.387Z,8.10
2023-04-23T00:56:41.450Z,8.00
2023-04-23T00:59:08.877Z,8.10
2023-04-23T01:01:36.106Z,8.10
2023-04-23T01:04:03.655Z,8.00
2023-04-23T01:06:31.824Z,8.00
2023-04-23T01:08:59.448Z,8.00
2023-04-23T01:11:26.852Z,8.00
2023-04-23T01:13:53.982Z,8.00
2023-04-23T01:16:21.068Z,8.10
2023-04-23T01:18:48.546Z,8.10
2023-04-23T01:21:16.929Z,8.10
2023-04-23T01:23:44.239Z,8.10
2023-04-23T01:26:11.594Z,8.20
2023-04-23T01:28:39.244Z,8.10
2023-04-23T01:31:06.953Z,8.20
2023-04-23T01:33:34.486Z,8.20
2023-04-23T01:36:02.775Z,8.20
2023-04-23T01:38:33.049Z,8.20
2023-04-23T01:41:00.108Z,8.30
2023-04-23T01:43:28.324Z,8.30
2023-04-23T01:45:55.533Z,8.30
2023-04-23T01:48:22.710Z,8.30
2023-04-23T01:50:51.433Z,8.30
2023-04-23T01:53:18.806Z,8.30
2023-04-23T01:55:48.232Z,8.30
2023-04-23T01:58:15.517Z,8.30
2023-04-23T02:00:42.620Z,8.30
2023-04-23T02:03:09.836Z,8.30
2023-04-23T02:05:38.878Z,8.30
2023-04-23T02:08:06.049Z,8.30
2023-04-23T02:10:33.185Z,8.30
2023-04-23T02:13:01.880Z,8.30
2023-04-23T02:15:29.507Z,8.30
2023-04-23T02:17:56.792Z,8.40
2023-04-23T02:20:23.914Z,8.40
2023-04-23T02:22:51.622Z,8.40
2023-04-23T02:25:21.684Z,8.40
2023-04-23T02:27:49.250Z,8.50
2023-04-23T02:30:16.516Z,8.50
2023-04-23T02:32:44.094Z,8.50
2023-04-23T02:35:11.345Z,8.50
2023-04-23T02:37:38.653Z,8.50
2023-04-23T02:40:06.861Z,8.50
2023-04-23T02:42:34.431Z,8.50
2023-04-23T02:45:01.609Z,8.50
2023-04-23T02:47:28.755Z,8.40
2023-04-23T02:49:55.792Z,8.40
2023-04-23T02:52:22.794Z,8.40
2023-04-23T02:54:49.844Z,8.40
2023-04-23T02:57:17.073Z,8.40
2023-04-23T02:59:44.223Z,8.40
2023-04-23T03:02:11.355Z,8.40
2023-04-23T03:04:38.709Z,8.40
2023-04-23T03:07:05.906Z,8.40
2023-04-23T03:09:33.135Z,8.40
2023-04-23T03:12:00.265Z,8.40
2023-04-23T03:14:27.367Z,8.40
2023-04-23T03:16:54.397Z,8.40
2023-04-23T03:19:21.488Z,8.40
2023-04-23T03:21:48.739Z,8.40
2023-04-23T03:24:16.734Z,8.40
2023-04-23T03:26:43.819Z,8.50
2023-04-23T03:29:11.106Z,8.50
2023-04-23T03:31:38.150Z,8.50
2023-04-23T03:34:05.258Z,8.50
2023-04-23T03:36:32.517Z,8.50
2023-04-23T03:38:59.599Z,8.50
2023-04-23T03:41:26.645Z,8.60
2023-04-23T03:43:53.701Z,8.60
2023-04-23T03:46:20.772Z,8.60
2023-04-23T03:48:47.849Z,8.60
2023-04-23T03:51:15.525Z,8.70
2023-04-23T03:53:42.616Z,8.60
2023-04-23T03:56:09.967Z,8.60
2023-04-23T03:58:37.040Z,8.70
2023-04-23T04:01:04.382Z,8.70
2023-04-23T04:03:31.939Z,8.70
2023-04-23T04:05:59.022Z,8.70
2023-04-23T04:08:27.144Z,8.70
2023-04-23T04:10:54.414Z,8.70
2023-04-23T04:13:21.510Z,8.70
2023-04-23T04:15:48.957Z,8.80
2023-04-23T04:18:16.345Z,8.70
2023-04-23T04:20:44.436Z,8.80
2023-04-23T04:23:11.469Z,8.80
2023-04-23T04:25:40.209Z,8.80
2023-04-23T04:28:09.993Z,8.80
2023-04-23T04:30:38.191Z,8.90
2023-04-23T04:33:05.339Z,8.80
2023-04-23T04:35:32.390Z,8.90
2023-04-23T04:38:00.020Z,8.90
2023-04-23T04:40:28.663Z,8.90
2023-04-23T04:42:55.671Z,8.90
2023-04-23T04:45:24.001Z,8.90
2023-04-23T04:47:51.601Z,8.90
2023-04-23T04:50:18.724Z,8.90
2023-04-23T04:52:46.073Z,8.90
2023-04-23T04:55:13.157Z,8.80
2023-04-23T04:57:40.379Z,8.80
2023-04-23T05:00:29.316Z,8.80
2023-04-23T05:02:58.385Z,8.90
2023-04-23T05:05:27.437Z,8.90
2023-04-23T05:07:55.031Z,9.00
2023-04-23T05:10:22.069Z,9.10
2023-04-23T05:12:49.215Z,9.10
2023-04-23T05:15:16.603Z,9.20
2023-04-23T05:17:44.446Z,9.20
2023-04-23T05:20:12.110Z,9.30
2023-04-23T05:22:41.637Z,9.30
2023-04-23T05:25:11.870Z,9.40
2023-04-23T05:27:39.907Z,9.40
2023-04-23T05:30:11.709Z,9.50
2023-04-23T05:32:39.373Z,9.60
2023-04-23T05:35:07.256Z,9.70
2023-04-23T05:37:34.866Z,9.70
2023-04-23T05:40:02.870Z,9.70
2023-04-23T05:42:29.877Z,9.70
2023-04-23T05:44:56.929Z,9.80
2023-04-23T05:47:23.951Z,9.90
2023-04-23T05:49:50.998Z,9.90
2023-04-23T05:52:19.163Z,9.90
2023-04-23T05:54:46.205Z,9.90
2023-04-23T05:57:13.334Z,9.90
2023-04-23T05:59:40.507Z,10.00
2023-04-23T06:02:10.860Z,10.10
2023-04-23T06:04:38.497Z,10.20
2023-04-23T06:07:06.736Z,10.30
2023-04-23T06:09:33.740Z,10.30
2023-04-23T06:12:01.056Z,10.40
2023-04-23T06:14:28.114Z,10.50
2023-04-23T06:16:55.167Z,10.50
2023-04-23T06:19:24.993Z,10.70
2023-04-23T06:21:52.407Z,10.70
2023-04-23T06:24:19.553Z,10.80
2023-04-23T06:26:46.708Z,10.90
2023-04-23T06:29:13.728Z,10.90
2023-04-23T06:31:41.957Z,11.00
2023-04-23T06:34:09.200Z,11.10
2023-04-23T06:36:36.220Z,11.20
2023-04-23T06:39:03.386Z,11.30
2023-04-23T06:41:30.699Z,11.30
2023-04-23T06:43:57.746Z,11.50
2023-04-23T06:46:24.927Z,11.60
2023-04-23T06:48:51.998Z,11.60
2023-04-23T06:51:19.131Z,11.70
2023-04-23T06:53:47.052Z,11.60
2023-04-23T06:56:14.159Z,11.70
2023-04-23T06:58:41.305Z,11.90
2023-04-23T07:01:08.406Z,11.90
2023-04-23T07:03:36.522Z,11.90
2023-04-23T07:06:04.181Z,12.10
2023-04-23T07:08:31.854Z,12.20
2023-04-23T07:10:59.079Z,12.30
2023-04-23T07:13:26.535Z,12.40
2023-04-23T07:15:53.617Z,12.50
2023-04-23T07:18:20.685Z,12.50
2023-04-23T07:20:47.714Z,12.60
2023-04-23T07:23:14.820Z,12.50
2023-04-23T07:25:42.201Z,12.60
2023-04-23T07:28:09.376Z,12.70
2023-04-23T07:30:36.744Z,12.70
2023-04-23T07:33:04.000Z,12.90
2023-04-23T07:35:31.112Z,13.00
2023-04-23T07:37:58.358Z,13.10
2023-04-23T07:40:25.673Z,13.10
2023-04-23T07:42:53.057Z,13.30
2023-04-23T07:45:20.294Z,13.40
2023-04-23T07:47:50.422Z,13.50
2023-04-23T07:50:17.540Z,13.50
2023-04-23T07:52:44.720Z,13.50
2023-04-23T07:55:11.795Z,13.60
2023-04-23T07:57:39.058Z,13.80
2023-04-23T08:00:09.565Z,13.80
2023-04-23T08:02:36.847Z,13.70
2023-04-23T08:05:04.415Z,13.80
2023-04-23T08:07:31.737Z,13.90
2023-04-23T08:10:03.002Z,14.00
2023-04-23T08:12:31.086Z,14.10
2023-04-23T08:14:58.326Z,14.30
2023-04-23T08:17:25.717Z,14.40
2023-04-23T08:19:52.974Z,14.50
2023-04-23T08:22:20.447Z,14.60
2023-04-23T08:24:48.880Z,14.70
2023-04-23T08:27:16.058Z,14.60
2023-04-23T08:29:43.369Z,14.70
2023-04-23T08:32:10.689Z,15.00
2023-04-23T08:34:37.814Z,15.00
2023-04-23T08:37:05.172Z,15.20
2023-04-23T08:39:34.610Z,15.40
2023-04-23T08:42:14.620Z,15.30
2023-04-23T08:44:45.073Z,15.40
2023-04-23T08:47:14.904Z,15.70
2023-04-23T08:49:44.667Z,15.80
2023-04-23T08:52:23.781Z,15.90
2023-04-23T08:54:54.424Z,15.60
2023-04-23T08:57:22.338Z,15.50
2023-04-23T08:59:49.824Z,15.50
2023-04-23T09:02:18.083Z,15.70
2023-04-23T09:04:50.911Z,16.20
2023-04-23T09:07:19.087Z,16.40
2023-04-23T09:09:47.830Z,16.20
2023-04-23T09:12:15.609Z,16.00
2023-04-23T09:14:42.908Z,16.50
2023-04-23T09:17:11.358Z,16.50
2023-04-23T09:19:40.719Z,16.50
2023-04-23T09:22:09.183Z,16.50
2023-04-23T09:24:36.221Z,16.40
2023-04-23T09:27:04.354Z,16.10
2023-04-23T09:29:31.635Z,16.00
2023-04-23T09:32:09.513Z,15.90
2023-04-23T09:34:37.739Z,15.70
2023-04-23T09:37:11.163Z,15.80
2023-04-23T09:39:40.046Z,15.90
2023-04-23T09:42:09.894Z,16.00
2023-04-23T09:44:37.051Z,16.30
2023-04-23T09:47:09.861Z,16.70
2023-04-23T09:49:49.637Z,16.90
2023-04-23T09:52:18.579Z,16.90
2023-04-23T09:54:46.829Z,16.80
2023-04-23T09:57:14.078Z,16.30
2023-04-23T09:59:48.876Z,16.30
2023-04-23T10:02:20.233Z,16.30
2023-04-23T10:05:00.645Z,16.20
2023-04-23T10:07:34.631Z,16.40
2023-04-23T10:10:01.729Z,16.80
2023-04-23T10:12:46.587Z,16.80
2023-04-23T10:15:15.796Z,16.80
2023-04-23T10:17:43.206Z,16.90
2023-04-23T10:20:12.211Z,16.90
2023-04-23T10:22:44.408Z,17.20
2023-04-23T10:25:12.566Z,16.90
2023-04-23T10:27:52.917Z,17.00
2023-04-23T10:30:22.437Z,17.10
2023-04-23T10:32:50.723Z,17.00
2023-04-23T10:35:18.378Z,17.00
2023-04-23T10:37:48.374Z,17.10
2023-04-23T10:40:34.053Z,17.20
2023-04-23T10:43:01.453Z,17.20
2023-04-23T10:45:32.953Z,17.00
2023-04-23T10:48:00.279Z,17.30
2023-04-23T10:50:30.538Z,17.60
2023-04-23T10:52:59.014Z,17.80
2023-04-23T10:55:29.049Z,17.90
2023-04-23T10:58:07.416Z,17.80
2023-04-23T11:00:46.263Z,18.00
2023-04-23T11:03:43.154Z,17.70
2023-04-23T11:06:40.114Z,17.60
2023-04-23T11:09:29.112Z,17.40
2023-04-23T11:11:58.111Z,17.40
2023-04-23T11:14:49.786Z,17.50
2023-04-23T11:17:19.196Z,17.70
2023-04-23T11:20:07.050Z,17.80
2023-04-23T11:22:39.082Z,17.90
2023-04-23T11:25:20.777Z,17.80
2023-04-23T11:27:50.970Z,18.20
2023-04-23T11:30:20.296Z,18.00
2023-04-23T11:32:52.542Z,17.80
2023-04-23T11:35:23.086Z,18.10
2023-04-23T11:37:50.310Z,18.20
2023-04-23T11:40:19.312Z,18.60
2023-04-23T11:42:51.762Z,18.80
2023-04-23T11:45:20.413Z,18.80
2023-04-23T11:47:50.971Z,18.60
2023-04-23T11:50:24.342Z,18.60
2023-04-23T11:52:52.752Z,18.70
2023-04-23T11:55:21.002Z,19.00
2023-04-23T11:57:52.714Z,18.80
2023-04-23T12:00:22.825Z,18.30
2023-04-23T12:03:01.750Z,17.90
2023-04-23T12:05:35.345Z,17.90
2023-04-23T12:08:20.517Z,18.30
2023-04-23T12:10:54.374Z,18.50
2023-04-23T12:13:36.274Z,18.40
2023-04-23T12:16:05.318Z,17.90
2023-04-23T12:18:42.332Z,17.60
2023-04-23T12:21:14.314Z,17.80
2023-04-23T12:23:45.291Z,18.30
2023-04-23T12:26:15.820Z,18.50
2023-04-23T12:29:01.830Z,18.40
2023-04-23T12:31:31.161Z,18.60
2023-04-23T12:34:12.761Z,18.40
2023-04-23T12:36:43.782Z,18.50
2023-04-23T12:39:27.859Z,18.80
2023-04-23T12:42:05.282Z,18.50
2023-04-23T12:44:36.298Z,18.20
2023-04-23T12:47:07.349Z,17.90
2023-04-23T12:49:37.072Z,18.10
2023-04-23T12:52:07.319Z,18.20
2023-04-23T12:54:37.677Z,18.30
2023-04-23T12:57:08.037Z,18.40
2023-04-23T12:59:35.916Z,18.30
2023-04-23T13:02:07.071Z,18.40
2023-04-23T13:04:36.834Z,18.50
2023-04-23T13:07:04.552Z,18.50
2023-04-23T13:09:31.962Z,18.60
2023-04-23T13:12:00.936Z,18.90
2023-04-23T13:14:28.552Z,19.10
2023-04-23T13:16:57.979Z,18.70
2023-04-23T13:19:25.981Z,18.00
2023-04-23T13:21:53.774Z,17.90
2023-04-23T13:24:20.981Z,18.10
2023-04-23T13:26:48.188Z,17.90
2023-04-23T13:29:16.214Z,18.00
2023-04-23T13:31:43.606Z,18.20
2023-04-23T13:34:10.977Z,18.00
2023-04-23T13:36:42.893Z,17.90
2023-04-23T13:39:14.425Z,17.90
2023-04-23T13:41:42.412Z,17.80
2023-04-23T13:44:10.170Z,17.60
2023-04-23T13:46:40.334Z,17.30
2023-04-23T13:49:08.987Z,16.90
2023-04-23T13:51:36.453Z,16.50
2023-04-23T13:54:04.041Z,16.40
2023-04-23T13:56:31.836Z,16.30
2023-04-23T14:01:34.745Z,16.00
2023-04-23T14:04:04.426Z,16.00
2023-04-23T14:06:32.215Z,16.00
2023-04-23T14:08:59.540Z,15.80
2023-04-23T14:11:27.352Z,15.70
2023-04-23T14:13:54.942Z,15.60
2023-04-23T14:16:22.314Z,15.70
2023-04-23T14:18:51.790Z,15.60
2023-04-23T14:21:19.155Z,15.50
2023-04-23T14:24:03.090Z,15.10
2023-04-23T14:29:39.847Z,14.00
2023-04-23T14:32:08.066Z,13.90
2023-04-23T14:34:36.045Z,14.00
2023-04-23T14:37:04.187Z,14.00
2023-04-23T14:39:32.172Z,13.90
2023-04-23T14:41:59.596Z,13.80
2023-04-23T14:44:27.087Z,14.10
2023-04-23T14:46:54.994Z,14.00
2023-04-23T14:49:24.965Z,13.90
2023-04-23T14:51:57.830Z,13.90
2023-04-23T14:54:25.467Z,14.00
2023-04-23T14:56:52.938Z,14.00
2023-04-23T14:59:22.008Z,14.00
2023-04-23T15:01:49.439Z,13.90
2023-04-23T15:04:17.130Z,14.00
2023-04-23T15:06:47.346Z,13.90
2023-04-23T15:09:14.682Z,13.90
2023-04-23T15:11:43.430Z,13.90
2023-04-23T15:14:32.656Z,13.60
2023-04-23T15:17:00.147Z,13.60
2023-04-23T15:19:27.663Z,13.70
2023-04-23T15:21:55.046Z,13.60
2023-04-23T15:24:22.105Z,13.50
2023-04-23T15:26:49.732Z,13.40
2023-04-23T15:29:16.799Z,13.50
2023-04-23T15:31:43.949Z,13.60
2023-04-23T15:34:12.235Z,13.60
2023-04-23T15:36:39.824Z,13.60
2023-04-23T15:39:07.731Z,13.50
2023-04-23T15:41:39.336Z,13.30
2023-04-23T15:44:14.077Z,13.50
2023-04-23T15:46:41.764Z,13.60
2023-04-23T15:49:09.012Z,13.70
2023-04-23T15:51:37.524Z,13.60
2023-04-23T15:54:08.243Z,13.50
2023-04-23T15:56:36.777Z,13.60
2023-04-23T15:59:04.252Z,13.50
2023-04-23T16:01:32.553Z,13.60
2023-04-23T16:04:09.728Z,13.50
2023-04-23T16:06:38.681Z,13.50
2023-04-23T16:09:08.882Z,13.50
2023-04-23T16:11:40.344Z,13.50
2023-04-23T16:14:09.628Z,13.80
2023-04-23T16:16:38.768Z,14.00
2023-04-23T16:19:06.478Z,14.10
2023-04-23T16:21:33.808Z,14.10
2023-04-23T16:24:01.453Z,14.10
2023-04-23T16:26:29.314Z,14.10
2023-04-23T16:29:16.481Z,14.00
2023-04-23T16:31:44.566Z,13.90
2023-04-23T16:34:11.810Z,13.90
2023-04-23T16:36:39.150Z,13.80
2023-04-23T16:39:06.457Z,13.80
2023-04-23T16:41:33.842Z,13.70
2023-04-23T16:44:01.245Z,13.90
2023-04-23T16:46:30.993Z,13.90
2023-04-23T16:48:58.758Z,13.90
2023-04-23T16:51:27.190Z,14.10
2023-04-23T16:53:54.494Z,14.00
2023-04-23T16:56:22.060Z,13.90
2023-04-23T16:58:49.883Z,14.00
2023-04-23T17:01:17.974Z,14.00
2023-04-23T17:03:48.398Z,14.10
2023-04-23T17:06:29.034Z,13.90
2023-04-23T17:08:58.939Z,13.90
2023-04-23T17:11:30.294Z,14.00
2023-04-23T17:13:59.671Z,13.90
2023-04-23T17:16:27.602Z,13.90
2023-04-23T17:18:56.023Z,13.90
2023-04-23T17:21:24.063Z,13.90
2023-04-23T17:23:51.624Z,13.80
2023-04-23T17:26:20.955Z,13.70
2023-04-23T17:28:48.266Z,13.60
2023-04-23T17:31:16.367Z,13.50
2023-04-23T17:33:45.406Z,13.50
2023-04-23T17:36:12.918Z,13.50
2023-04-23T17:38:39.927Z,13.50
2023-04-23T17:41:07.814Z,13.40
2023-04-23T17:43:35.161Z,13.40
2023-04-23T17:46:02.411Z,13.40
2023-04-23T17:48:30.290Z,13.30
2023-04-23T17:50:57.520Z,13.40
2023-04-23T17:53:25.054Z,13.20
2023-04-23T17:55:52.340Z,13.20
2023-04-23T17:58:21.526Z,13.20
2023-04-23T18:00:49.501Z,13.20
2023-04-23T18:03:18.732Z,13.10
2023-04-23T18:05:46.251Z,13.10
2023-04-23T18:08:16.395Z,13.10
2023-04-23T18:10:46.253Z,13.10
2023-04-23T18:13:14.282Z,13.00
2023-04-23T18:15:42.381Z,13.00
2023-04-23T18:18:09.921Z,13.00
2023-04-23T18:20:39.208Z,12.90
2023-04-23T18:23:06.954Z,13.00
2023-04-23T18:25:34.244Z,13.00
2023-04-23T18:28:01.415Z,13.00
2023-04-23T18:30:29.312Z,12.80
2023-04-23T18:33:38.812Z,12.50
2023-04-23T18:36:24.387Z,12.10
2023-04-23T18:38:51.764Z,11.90
2023-04-23T18:41:19.013Z,11.80
2023-04-23T18:43:46.444Z,11.60
2023-04-23T18:46:13.684Z,11.60
2023-04-23T18:48:54.284Z,11.40
2023-04-23T18:51:43.235Z,11.40
2023-04-23T18:54:14.912Z,11.10
2023-04-23T18:56:42.259Z,11.00
2023-04-23T18:59:11.561Z,10.90
2023-04-23T19:01:43.276Z,11.00
2023-04-23T19:04:10.612Z,11.00
2023-04-23T19:06:38.089Z,11.10
2023-04-23T19:09:05.313Z,11.10
2023-04-23T19:11:35.405Z,10.90
2023-04-23T19:14:02.635Z,10.90
2023-04-23T19:16:29.758Z,10.80
2023-04-23T19:18:57.007Z,10.80
2023-04-23T19:21:24.251Z,10.70
2023-04-23T19:23:52.302Z,10.60
2023-04-23T19:26:19.248Z,10.30
2023-04-23T19:28:46.249Z,10.30
2023-04-23T19:31:13.553Z,10.30
2023-04-23T19:33:42.720Z,10.30
2023-04-23T19:36:13.284Z,10.30
2023-04-23T19:38:40.601Z,10.30
2023-04-23T19:41:07.907Z,10.20
2023-04-23T19:43:35.387Z,10.20
2023-04-23T19:46:02.464Z,10.20
2023-04-23T19:48:29.664Z,10.10
2023-04-23T19:50:57.260Z,10.00
2023-04-23T19:53:25.755Z,10.00
2023-04-23T19:55:53.064Z,10.00
2023-04-23T19:58:20.166Z,10.00
2023-04-23T20:00:47.757Z,10.00
2023-04-23T20:03:15.116Z,10.00
2023-04-23T20:05:44.706Z,10.00
2023-04-23T20:08:15.266Z,10.00
2023-04-23T20:10:43.369Z,9.90
2023-04-23T20:13:10.410Z,9.90
2023-04-23T20:15:37.682Z,10.00
2023-04-23T20:18:05.382Z,9.90
2023-04-23T20:20:33.935Z,9.80
2023-04-23T20:23:00.974Z,9.70
2023-04-23T20:25:27.981Z,9.70
2023-04-23T20:27:57.106Z,9.70
2023-04-23T20:30:24.348Z,9.70
2023-04-23T20:32:51.686Z,9.70
2023-04-23T20:35:18.709Z,9.70
2023-04-23T20:37:45.965Z,9.70
2023-04-23T20:40:14.437Z,9.80
2023-04-23T20:42:51.549Z,9.80
2023-04-23T20:45:20.714Z,9.80
2023-04-23T20:47:48.911Z,9.80
2023-04-23T20:50:16.186Z,9.80
2023-04-23T20:52:44.746Z,9.80
2023-04-23T20:55:11.803Z,9.80
2023-04-23T20:57:38.899Z,9.80
2023-04-23T21:00:11.666Z,9.80
2023-04-23T21:02:39.491Z,9.80
2023-04-23T21:05:07.954Z,9.80
2023-04-23T21:07:36.757Z,9.80
2023-04-23T21:10:07.876Z,9.80
2023-04-23T21:12:35.969Z,9.70
2023-04-23T21:15:03.589Z,9.80
2023-04-23T21:17:30.706Z,9.80
2023-04-23T21:19:58.062Z,9.90
2023-04-23T21:22:25.260Z,9.80
2023-04-23T21:24:52.478Z,9.90
2023-04-23T21:27:21.829Z,9.90
2023-04-23T21:29:49.599Z,9.90
2023-04-23T21:32:20.962Z,9.90
2023-04-23T21:34:48.157Z,9.90
2023-04-23T21:37:15.349Z,9.90
2023-04-23T21:39:42.842Z,9.90
2023-04-23T21:42:10.091Z,9.90
2023-04-23T21:44:37.442Z,9.90
2023-04-23T21:47:04.753Z,9.90
2023-04-23T21:49:32.875Z,10.00
2023-04-23T21:52:01.562Z,10.00
2023-04-23T21:54:29.199Z,9.90
2023-04-23T21:56:56.518Z,9.90
2023-04-23T21:59:24.819Z,9.90
2023-04-23T22:01:51.865Z,9.90
2023-04-23T22:04:19.257Z,9.90
2023-04-23T22:06:46.572Z,9.90
2023-04-23T22:09:14.135Z,9.90
2023-04-23T22:11:48.920Z,9.80
2023-04-23T22:14:22.599Z,9.80
2023-04-23T22:16:51.175Z,9.80
2023-04-23T22:19:21.085Z,9.80
2023-04-23T22:21:48.088Z,9.80
2023-04-23T22:24:15.212Z,9.80
2023-04-23T22:26:42.479Z,9.80
2023-04-23T22:29:09.674Z,9.80
2023-04-23T22:31:36.805Z,9.80
2023-04-23T22:34:03.930Z,9.80
2023-04-23T22:36:31.936Z,9.80
2023-04-23T22:38:59.036Z,9.80
2023-04-23T22:41:26.151Z,9.70
2023-04-23T22:43:54.195Z,9.70
2023-04-23T22:46:21.297Z,9.70
2023-04-23T22:48:48.821Z,9.70
2023-04-23T22:51:16.005Z,9.70
2023-04-23T22:53:43.014Z,9.70
2023-04-23T22:56:10.201Z,9.70
2023-04-23T22:58:37.641Z,9.70
2023-04-23T23:01:04.905Z,9.70
2023-04-23T23:03:32.658Z,9.70
2023-04-23T23:05:59.750Z,9.70
2023-04-23T23:08:26.906Z,9.70
2023-04-23T23:10:54.356Z,9.60
2023-04-23T23:13:21.421Z,9.60
2023-04-23T23:15:48.575Z,9.70
2023-04-23T23:18:15.588Z,9.60
2023-04-23T23:20:44.670Z,9.70
2023-04-23T23:23:11.864Z,9.70
2023-04-23T23:25:38.920Z,9.70
2023-04-23T23:28:05.926Z,9.80
2023-04-23T23:30:32.976Z,9.70
2023-04-23T23:33:00.603Z,9.70
2023-04-23T23:35:27.610Z,9.70
2023-04-23T23:37:54.679Z,9.70
2023-04-23T23:40:21.638Z,9.70
2023-04-23T23:42:50.159Z,9.60
2023-04-23T23:45:17.234Z,9.60
2023-04-23T23:47:44.561Z,9.60
2023-04-23T23:50:12.100Z,9.60
2023-04-23T23:52:39.297Z,9.60
2023-04-23T23:55:07.194Z,9.60
2023-04-23T23:57:34.139Z,9.60
